Time;durP1;ratioP1;P1;durP2;ratioP2;P2;SDS_P1;SDS_P2;PMS_P1;PMS_P2;Temp;Humidity;BMP_temperature;BMP_pressure;BME280_temperature;BME280_humidity;BME280_pressure;Samples;Min_cycle;Max_cycle;Signal;HPM_P1;HPM_P2
2022/06/14 00:01:32;;;;;;;7.43;0.98;;;9.80;99.90;;;;;;5032708;28;20025;-86
2022/06/14 00:03:58;;;;;;;6.93;1.10;;;9.70;99.90;;;;;;5033907;28;20050;-86
2022/06/14 00:06:27;;;;;;;7.00;1.13;;;9.70;99.90;;;;;;5015355;28;20064;-86
2022/06/14 00:08:53;;;;;;;9.38;0.90;;;9.70;99.90;;;;;;5016232;28;20025;-86
2022/06/14 00:11:26;;;;;;;9.60;1.00;;;9.70;99.90;;;;;;5016343;28;20489;-86
2022/06/14 00:13:54;;;;;;;6.80;1.10;;;9.60;99.90;;;;;;5016362;28;20022;-85
2022/06/14 00:16:20;;;;;;;7.40;0.70;;;9.60;99.90;;;;;;5016110;28;20026;-86
2022/06/14 00:18:46;;;;;;;8.77;1.33;;;9.60;99.90;;;;;;5016174;28;20021;-86
2022/06/14 00:21:11;;;;;;;8.23;1.10;;;9.50;99.90;;;;;;5016157;28;20029;-86
2022/06/14 00:23:38;;;;;;;7.18;1.05;;;9.50;99.90;;;;;;5016264;28;20021;-86
2022/06/14 00:26:04;;;;;;;6.30;0.80;;;9.50;99.90;;;;;;5016120;28;20025;-85
2022/06/14 00:28:32;;;;;;;6.13;1.10;;;9.50;99.90;;;;;;5016033;28;20489;-87
2022/06/14 00:31:03;;;;;;;7.03;1.17;;;9.40;99.90;;;;;;5033509;28;20029;-86
2022/06/14 00:33:28;;;;;;;5.10;1.27;;;9.40;99.90;;;;;;5016156;28;20095;-86
2022/06/14 00:36:17;;;;;;;6.03;1.10;;;9.40;99.90;;;;;;5033352;28;20057;-86
2022/06/14 00:38:43;;;;;;;7.90;1.38;;;9.40;99.90;;;;;;5015933;28;20025;-86
2022/06/14 00:41:41;;;;;;;6.57;1.10;;;9.30;99.90;;;;;;5033849;28;20109;-86
2022/06/14 00:44:13;;;;;;;6.97;1.08;;;9.30;99.90;;;;;;5007862;28;20125;-86
2022/06/14 00:46:51;;;;;;;7.43;1.25;;;9.30;99.90;;;;;;5016039;28;20113;-86
2022/06/14 00:49:26;;;;;;;8.45;1.63;;;9.30;99.90;;;;;;5033579;28;20144;-86
2022/06/14 00:52:05;;;;;;;6.93;1.08;;;9.30;99.90;;;;;;5032415;28;20021;-85
2022/06/14 00:54:39;;;;;;;5.72;1.20;;;9.20;99.90;;;;;;5032128;28;20037;-85
2022/06/14 00:57:21;;;;;;;11.23;2.15;;;9.20;99.90;;;;;;5015688;28;20057;-86
2022/06/14 01:00:03;;;;;;;7.32;1.45;;;9.20;99.90;;;;;;5016049;28;20029;-85
2022/06/14 01:02:37;;;;;;;6.93;1.15;;;9.20;99.90;;;;;;5015607;28;20025;-85
2022/06/14 01:05:08;;;;;;;5.68;1.75;;;9.10;99.90;;;;;;5015789;28;20057;-86
2022/06/14 01:07:41;;;;;;;5.90;1.95;;;9.10;99.90;;;;;;5015673;28;20112;-86
2022/06/14 01:10:10;;;;;;;11.52;1.27;;;9.10;99.90;;;;;;5015531;28;20381;-86
2022/06/14 01:12:42;;;;;;;5.50;1.33;;;9.10;99.90;;;;;;5032316;28;20384;-86
2022/06/14 01:15:16;;;;;;;5.28;1.10;;;9.00;99.90;;;;;;5015687;28;20409;-86
2022/06/14 01:17:46;;;;;;;7.30;1.30;;;9.00;99.90;;;;;;5018502;28;20056;-85
2022/06/14 01:20:16;;;;;;;8.20;1.20;;;9.00;99.90;;;;;;5019207;28;20117;-85
2022/06/14 01:22:43;;;;;;;7.53;1.83;;;8.90;99.90;;;;;;5019188;28;20021;-85
2022/06/14 01:25:10;;;;;;;9.23;1.55;;;8.90;99.90;;;;;;5019207;28;20072;-85
2022/06/14 01:27:38;;;;;;;8.25;1.73;;;8.90;99.90;;;;;;5035494;28;20032;-86
2022/06/14 01:30:20;;;;;;;13.38;2.17;;;8.90;99.90;;;;;;5036410;28;20017;-85
2022/06/14 01:32:53;;;;;;;8.93;1.38;;;8.90;99.90;;;;;;5018912;28;20481;-85
2022/06/14 01:35:23;;;;;;;6.40;1.98;;;8.90;99.90;;;;;;5018462;28;20057;-86
2022/06/14 01:37:52;;;;;;;11.43;2.60;;;8.80;99.90;;;;;;5036756;28;20541;-85
2022/06/14 01:40:22;;;;;;;8.85;1.85;;;8.80;99.90;;;;;;5036282;28;20053;-86
2022/06/14 01:43:10;;;;;;;9.48;2.28;;;8.80;99.90;;;;;;5036219;28;20037;-86
2022/06/14 01:46:10;;;;;;;5.05;1.48;;;8.70;99.90;;;;;;5036275;28;20026;-85
2022/06/14 01:48:49;;;;;;;6.15;1.52;;;8.70;99.90;;;;;;5018595;28;20028;-86
2022/06/14 01:51:51;;;;;;;9.82;2.35;;;8.70;99.90;;;;;;5036420;28;20040;-86
2022/06/14 01:54:40;;;;;;;9.40;2.10;;;8.60;99.90;;;;;;5036130;28;20115;-88
2022/06/14 01:57:35;;;;;;;7.53;1.48;;;8.60;99.90;;;;;;5036068;28;20034;-87
2022/06/14 02:00:08;;;;;;;10.48;1.35;;;8.60;99.90;;;;;;5036290;28;20024;-87
2022/06/14 02:02:40;;;;;;;6.07;1.60;;;8.50;99.90;;;;;;5034983;28;20033;-87
2022/06/14 02:05:31;;;;;;;8.40;1.58;;;8.50;99.90;;;;;;5018160;28;20116;-87
2022/06/14 02:08:09;;;;;;;7.75;2.47;;;8.50;99.90;;;;;;5018305;28;20083;-87
2022/06/14 02:10:58;;;;;;;8.88;1.88;;;8.40;99.90;;;;;;5018030;28;20021;-87
2022/06/14 02:13:32;;;;;;;6.57;2.00;;;8.40;99.90;;;;;;5018174;28;20029;-87
2022/06/14 02:16:14;;;;;;;10.10;2.50;;;8.40;99.90;;;;;;5017801;28;20090;-87
2022/06/14 02:18:42;;;;;;;8.68;1.98;;;8.40;99.90;;;;;;5034722;28;20033;-87
2022/06/14 02:21:24;;;;;;;11.63;2.40;;;8.30;99.90;;;;;;5018211;28;20478;-87
2022/06/14 02:23:59;;;;;;;13.17;3.03;;;8.30;99.90;;;;;;5018047;28;20386;-85
2022/06/14 02:26:36;;;;;;;11.85;2.42;;;8.30;99.90;;;;;;5017850;28;20319;-87
2022/06/14 02:29:13;;;;;;;6.68;2.50;;;8.30;99.90;;;;;;5033639;28;20112;-87
2022/06/14 02:31:46;;;;;;;10.52;2.78;;;8.20;99.90;;;;;;5017924;28;20109;-87
2022/06/14 02:34:24;;;;;;;10.05;3.35;;;8.30;99.90;;;;;;5035044;28;20027;-86
2022/06/14 02:37:09;;;;;;;8.77;2.25;;;8.20;99.90;;;;;;5034250;28;20082;-87
2022/06/14 02:39:49;;;;;;;9.82;2.83;;;8.20;99.90;;;;;;5017810;28;20493;-87
2022/06/14 02:42:25;;;;;;;9.80;2.72;;;8.20;99.90;;;;;;5034995;28;20116;-87
2022/06/14 02:44:56;;;;;;;8.30;3.38;;;8.30;99.90;;;;;;5035277;28;20104;-87
2022/06/14 02:47:31;;;;;;;9.93;3.10;;;8.20;99.90;;;;;;5035062;28;20113;-87
2022/06/14 02:50:18;;;;;;;12.57;3.17;;;8.20;99.90;;;;;;5017564;28;20033;-87
2022/06/14 02:52:53;;;;;;;7.53;2.67;;;8.20;99.90;;;;;;5033916;28;20025;-87
2022/06/14 02:55:26;;;;;;;9.05;3.00;;;8.20;99.90;;;;;;5017258;28;20573;-86
2022/06/14 02:58:08;;;;;;;8.15;2.30;;;8.10;99.90;;;;;;5017560;28;20021;-86
2022/06/14 03:00:44;;;;;;;7.97;2.83;;;8.10;99.90;;;;;;5033779;28;20477;-87
2022/06/14 03:03:15;;;;;;;10.57;2.85;;;8.10;99.90;;;;;;5017550;28;20272;-87
2022/06/14 03:05:54;;;;;;;9.77;2.95;;;8.00;99.90;;;;;;5017049;28;20025;-87
2022/06/14 03:08:44;;;;;;;6.65;2.72;;;8.00;99.90;;;;;;5017332;28;20116;-87
2022/06/14 03:11:39;;;;;;;11.68;2.65;;;8.00;99.90;;;;;;5017151;28;20029;-87
2022/06/14 03:14:22;;;;;;;10.65;3.20;;;8.00;99.90;;;;;;5033580;28;20168;-86
2022/06/14 03:17:19;;;;;;;7.60;3.10;;;8.00;99.90;;;;;;5033424;28;20033;-87
2022/06/14 03:20:04;;;;;;;10.85;2.90;;;7.90;99.90;;;;;;5033317;28;20030;-87
2022/06/14 03:22:54;;;;;;;9.52;3.15;;;7.90;99.90;;;;;;5016898;28;20117;-87
2022/06/14 03:25:46;;;;;;;10.88;3.22;;;7.90;99.90;;;;;;5034527;28;20063;-87
2022/06/14 03:28:36;;;;;;;10.20;3.40;;;7.90;99.90;;;;;;5016908;28;20083;-87
2022/06/14 03:31:20;;;;;;;13.93;3.00;;;7.90;99.90;;;;;;5016569;28;20060;-86
2022/06/14 03:34:01;;;;;;;6.97;2.75;;;7.90;99.90;;;;;;5050572;28;20025;-86
2022/06/14 03:36:27;;;;;;;10.52;3.53;;;7.90;99.90;;;;;;5036530;28;20057;-87
2022/06/14 03:39:11;;;;;;;13.65;3.70;;;7.80;99.90;;;;;;5054028;28;20028;-86
2022/06/14 03:41:40;;;;;;;9.23;3.42;;;7.90;99.90;;;;;;5036426;28;20078;-87
2022/06/14 03:44:06;;;;;;;14.90;3.58;;;7.80;99.90;;;;;;5036346;28;20391;-87
2022/06/14 03:46:41;;;;;;;10.85;3.50;;;7.90;99.90;;;;;;5053908;28;20025;-87
2022/06/14 03:49:19;;;;;;;9.60;3.30;;;7.90;99.90;;;;;;5036217;28;20021;-87
2022/06/14 03:52:12;;;;;;;9.48;3.85;;;7.90;99.90;;;;;;5053928;28;20039;-87
2022/06/14 03:55:17;;;;;;;13.55;3.38;;;7.90;99.90;;;;;;5053819;28;20029;-87
2022/06/14 03:57:53;;;;;;;11.00;3.15;;;7.90;99.90;;;;;;5053916;28;20021;-87
2022/06/14 04:00:31;;;;;;;10.95;3.78;;;7.80;99.90;;;;;;5053585;28;20032;-87
2022/06/14 04:03:29;;;;;;;11.10;4.05;;;7.90;99.90;;;;;;5036068;28;20370;-87
2022/06/14 04:06:23;;;;;;;11.00;3.75;;;7.90;99.90;;;;;;5006210;28;20037;-86
2022/06/14 04:08:58;;;;;;;13.30;4.35;;;7.90;99.90;;;;;;5035859;28;20476;-86
2022/06/14 04:12:21;;;;;;;11.10;3.28;;;7.90;99.90;;;;;;5035961;28;20477;-86
2022/06/14 04:15:20;;;;;;;8.80;2.78;;;8.00;99.90;;;;;;4972898;28;20380;-87
2022/06/14 04:17:50;;;;;;;12.43;3.17;;;8.00;99.90;;;;;;4973039;28;20170;-87
2022/06/14 04:20:23;;;;;;;12.73;3.50;;;8.00;99.90;;;;;;5013326;28;20067;-87
2022/06/14 04:23:02;;;;;;;10.15;3.65;;;8.00;99.90;;;;;;5035586;28;20053;-86
2022/06/14 04:25:53;;;;;;;14.20;3.53;;;8.10;99.90;;;;;;5036197;28;20511;-86
2022/06/14 04:28:28;;;;;;;10.32;3.75;;;8.20;99.90;;;;;;5035927;28;20392;-87
2022/06/14 04:31:18;;;;;;;8.93;3.85;;;8.20;99.90;;;;;;5035610;28;20028;-87
2022/06/14 04:33:54;;;;;;;15.27;3.97;;;8.30;99.90;;;;;;5035555;28;20029;-87
2022/06/14 04:36:34;;;;;;;16.33;4.18;;;8.30;99.90;;;;;;5035526;28;20057;-87
2022/06/14 04:39:25;;;;;;;9.02;4.30;;;8.40;99.90;;;;;;5035568;28;20021;-87
2022/06/14 04:41:55;;;;;;;8.02;4.28;;;8.50;99.90;;;;;;5043096;28;20056;-87
2022/06/14 04:44:36;;;;;;;10.40;4.20;;;8.60;99.90;;;;;;5035534;28;20040;-87
2022/06/14 04:47:12;;;;;;;10.80;4.03;;;8.70;99.90;;;;;;5035570;28;20159;-87
2022/06/14 04:49:59;;;;;;;16.25;4.60;;;8.70;99.90;;;;;;5035547;28;20467;-87
2022/06/14 04:52:36;;;;;;;12.85;4.95;;;8.90;99.90;;;;;;5055575;28;20080;-87
2022/06/14 04:55:07;;;;;;;14.35;4.82;;;9.10;99.90;;;;;;5039479;28;20033;-87
2022/06/14 04:57:43;;;;;;;9.10;3.47;;;9.50;99.90;;;;;;5056933;28;20047;-87
2022/06/14 05:00:11;;;;;;;10.18;3.10;;;9.90;99.90;;;;;;5039311;28;20439;-86
2022/06/14 05:02:51;;;;;;;12.95;3.80;;;10.40;99.90;;;;;;5039094;28;20103;-87
2022/06/14 05:05:23;;;;;;;9.30;2.78;;;10.90;99.90;;;;;;5039167;28;20033;-87
2022/06/14 05:07:58;;;;;;;7.72;2.55;;;11.40;99.90;;;;;;5039357;28;20029;-87
2022/06/14 05:10:35;;;;;;;7.78;2.30;;;11.90;99.90;;;;;;5056890;28;20028;-88
2022/06/14 05:13:24;;;;;;;7.60;2.92;;;12.40;99.90;;;;;;5056934;28;20052;-85
2022/06/14 05:16:04;;;;;;;9.20;2.53;;;12.80;99.90;;;;;;5039107;28;20039;-88
2022/06/14 05:18:59;;;;;;;7.57;2.28;;;13.20;99.90;;;;;;5039268;28;20027;-85
2022/06/14 05:21:32;;;;;;;6.47;2.10;;;13.60;99.90;;;;;;5056622;28;20036;-85
2022/06/14 05:23:59;;;;;;;6.38;2.10;;;13.80;99.90;;;;;;5038716;28;20114;-85
2022/06/14 05:26:51;;;;;;;9.23;2.38;;;14.10;99.90;;;;;;5038995;28;20112;-85
2022/06/14 05:29:25;;;;;;;7.13;1.80;;;14.40;99.90;;;;;;5056687;28;20029;-85
2022/06/14 05:32:13;;;;;;;8.98;2.08;;;14.80;99.90;;;;;;5038785;28;20024;-85
2022/06/14 05:34:57;;;;;;;9.60;1.92;;;15.10;99.90;;;;;;5038379;28;20044;-85
2022/06/14 05:37:44;;;;;;;7.15;1.98;;;15.70;99.90;;;;;;5055515;28;20036;-85
2022/06/14 05:40:25;;;;;;;9.18;2.05;;;16.10;99.90;;;;;;5038562;28;20025;-85
2022/06/14 05:42:58;;;;;;;7.88;1.40;;;16.50;99.90;;;;;;5056074;28;20028;-86
2022/06/14 05:45:27;;;;;;;6.20;1.42;;;16.70;99.90;;;;;;5038687;28;20035;-85
2022/06/14 05:48:05;;;;;;;7.40;1.73;;;16.90;99.90;;;;;;5038403;28;20384;-86
2022/06/14 05:50:41;;;;;;;14.88;1.40;;;17.10;99.90;;;;;;5038641;28;20033;-86
2022/06/14 05:53:18;;;;;;;6.97;1.75;;;17.20;99.90;;;;;;5038370;28;20025;-86
2022/06/14 05:56:04;;;;;;;9.18;1.95;;;17.10;99.90;;;;;;5038488;28;20036;-86
2022/06/14 05:58:34;;;;;;;5.18;1.52;;;16.90;99.90;;;;;;5055987;28;20024;-85
2022/06/14 06:01:16;;;;;;;8.80;1.63;;;16.70;99.90;;;;;;5038473;28;20112;-86
2022/06/14 06:03:51;;;;;;;8.07;1.45;;;16.70;99.90;;;;;;5036870;28;20025;-85
2022/06/14 06:06:29;;;;;;;9.80;1.60;;;16.60;99.90;;;;;;5038006;28;20036;-86
2022/06/14 06:09:07;;;;;;;9.75;1.48;;;16.60;99.90;;;;;;5038127;28;20029;-85
2022/06/14 06:11:38;;;;;;;8.95;1.38;;;16.50;99.90;;;;;;5038098;28;20025;-85
2022/06/14 06:14:09;;;;;;;8.35;1.10;;;16.60;99.90;;;;;;5038018;28;20021;-86
2022/06/14 06:19:53;;;;;;;4.85;1.05;;;16.70;99.90;;;;;;5041521;28;20040;-86
2022/06/14 06:22:43;;;;;;;6.05;0.93;;;16.80;99.90;;;;;;5037965;28;20496;-86
2022/06/14 06:25:25;;;;;;;5.20;1.08;;;16.90;99.90;;;;;;5037832;28;20025;-85
2022/06/14 06:28:02;;;;;;;5.60;0.85;;;16.90;99.90;;;;;;5037218;28;20021;-85
2022/06/14 06:30:39;;;;;;;5.35;0.60;;;16.80;99.90;;;;;;5018012;28;20034;-85
2022/06/14 06:33:06;;;;;;;6.85;0.80;;;16.70;99.90;;;;;;5017936;28;20021;-86
2022/06/14 06:35:45;;;;;;;7.10;0.77;;;16.70;99.90;;;;;;5017589;28;20049;-85
2022/06/14 06:38:28;;;;;;;5.47;0.60;;;16.70;99.90;;;;;;5017830;28;20056;-86
2022/06/14 06:43:52;;;;;;;4.30;0.68;;;16.60;99.90;;;;;;5035652;28;20028;-85
2022/06/14 06:46:20;;;;;;;5.32;0.90;;;16.60;99.90;;;;;;5017538;28;20441;-85
2022/06/14 06:48:51;;;;;;;6.53;0.60;;;16.70;99.90;;;;;;5017600;28;20018;-85
2022/06/14 06:51:22;;;;;;;4.95;0.68;;;16.80;99.90;;;;;;5017494;28;20489;-88
2022/06/14 06:54:02;;;;;;;5.32;1.00;;;16.90;99.90;;;;;;5017636;28;20075;-88
2022/06/14 06:56:33;;;;;;;6.25;0.73;;;16.90;99.90;;;;;;5017821;28;20029;-86
2022/06/14 06:59:40;;;;;;;6.28;0.80;;;16.90;99.70;;;;;;5017277;28;20116;-85
2022/06/14 07:02:33;;;;;;;5.55;1.00;;;16.90;99.50;;;;;;5004596;28;20064;-85
2022/06/14 07:05:04;;;;;;;8.45;0.90;;;16.90;99.30;;;;;;5033845;28;20116;-85
2022/06/14 07:07:57;;;;;;;6.93;0.80;;;16.90;99.20;;;;;;5017341;28;20029;-86
2022/06/14 07:10:30;;;;;;;6.63;1.00;;;16.90;99.30;;;;;;5033587;28;20029;-85
2022/06/14 07:13:09;;;;;;;9.60;1.35;;;16.90;98.80;;;;;;5033631;28;20030;-85
2022/06/14 07:15:43;;;;;;;4.47;0.82;;;17.00;98.20;;;;;;5034216;28;20112;-86
2022/06/14 07:18:13;;;;;;;5.78;1.15;;;17.00;97.80;;;;;;5017091;28;20033;-85
2022/06/14 07:21:01;;;;;;;4.57;0.77;;;17.00;97.80;;;;;;5034446;28;20457;-85
2022/06/14 07:23:38;;;;;;;2.80;0.55;;;16.90;97.80;;;;;;5016904;28;20436;-85
2022/06/14 07:26:11;;;;;;;6.07;0.70;;;16.90;97.70;;;;;;5034327;28;20117;-85
2022/06/14 07:28:40;;;;;;;5.88;0.82;;;16.90;97.30;;;;;;5034167;28;20394;-85
2022/06/14 07:31:12;;;;;;;4.50;0.70;;;16.90;97.50;;;;;;5034190;28;20104;-85
2022/06/14 07:33:38;;;;;;;9.20;0.95;;;17.00;97.30;;;;;;5034400;28;20025;-85
2022/06/14 07:36:12;;;;;;;6.90;0.70;;;17.10;96.60;;;;;;5034012;28;20062;-85
2022/06/14 07:39:06;;;;;;;3.97;0.80;;;17.10;96.50;;;;;;5033155;28;20108;-85
2022/06/14 07:41:42;;;;;;;3.60;0.50;;;17.10;96.50;;;;;;5033058;28;20035;-85
2022/06/14 07:44:30;;;;;;;3.30;0.50;;;17.20;96.00;;;;;;5016582;28;20425;-84
2022/06/14 07:47:05;;;;;;;5.15;0.80;;;17.30;95.30;;;;;;5016367;28;20025;-84
2022/06/14 07:50:02;;;;;;;3.50;0.50;;;17.30;95.20;;;;;;5016536;28;20559;-84
2022/06/14 07:52:42;;;;;;;4.40;0.70;;;17.30;94.80;;;;;;5016117;28;20575;-84
2022/06/14 07:55:15;;;;;;;3.58;0.47;;;17.30;95.00;;;;;;5016273;28;20037;-84
2022/06/14 07:57:45;;;;;;;4.00;0.50;;;17.40;94.70;;;;;;5016335;28;20024;-84
2022/06/14 08:03:25;;;;;;;2.97;0.40;;;17.50;93.40;;;;;;5034164;28;20033;-83
2022/06/14 08:05:53;;;;;;;5.05;0.60;;;17.60;93.60;;;;;;5033662;28;20105;-84
2022/06/14 08:08:24;;;;;;;5.32;0.50;;;17.60;93.40;;;;;;5033701;28;20092;-84
2022/06/14 08:10:54;;;;;;;7.60;0.60;;;17.60;93.00;;;;;;5016012;28;20025;-84
2022/06/14 08:13:30;;;;;;;10.82;0.80;;;17.60;92.90;;;;;;5016175;28;20029;-85
2022/06/14 08:16:00;;;;;;;3.97;0.60;;;17.70;93.00;;;;;;5032459;28;20045;-84
2022/06/14 08:18:35;;;;;;;3.38;0.47;;;17.70;92.70;;;;;;5016066;28;20025;-84
2022/06/14 08:21:34;;;;;;;4.00;0.40;;;17.60;92.60;;;;;;5033750;28;20049;-85
2022/06/14 08:24:13;;;;;;;3.47;0.40;;;17.50;92.80;;;;;;5033515;28;20026;-83
2022/06/14 08:26:47;;;;;;;5.00;1.02;;;17.60;92.80;;;;;;5034557;28;20117;-84
2022/06/14 08:29:24;;;;;;;6.28;0.40;;;17.70;92.60;;;;;;5037636;28;20083;-84
2022/06/14 08:32:07;;;;;;;4.05;0.45;;;17.80;92.00;;;;;;5020225;28;20025;-84
2022/06/14 08:34:46;;;;;;;7.72;0.52;;;17.80;91.60;;;;;;5037444;28;20103;-85
2022/06/14 08:37:32;;;;;;;4.50;0.50;;;17.90;91.60;;;;;;5036453;28;20096;-84
2022/06/14 08:40:13;;;;;;;3.95;0.32;;;18.10;91.20;;;;;;5019986;28;20030;-85
2022/06/14 08:42:45;;;;;;;4.03;0.40;;;18.30;90.60;;;;;;5019861;28;20425;-84
2022/06/14 08:45:24;;;;;;;4.53;0.40;;;18.30;90.30;;;;;;5019710;28;20112;-84
2022/06/14 08:48:26;;;;;;;2.67;0.30;;;18.50;90.00;;;;;;5037543;28;20490;-84
2022/06/14 08:51:12;;;;;;;3.20;0.30;;;18.60;90.30;;;;;;5019567;28;20067;-85
2022/06/14 08:53:56;;;;;;;2.13;0.38;;;18.70;89.70;;;;;;5037276;28;20021;-84
2022/06/14 08:56:40;;;;;;;1.65;0.30;;;18.50;88.20;;;;;;5037016;28;20034;-84
2022/06/14 08:59:15;;;;;;;2.50;0.20;;;18.30;88.30;;;;;;5019244;28;20021;-84
2022/06/14 09:02:06;;;;;;;2.13;0.32;;;18.20;89.20;;;;;;5019722;28;20021;-85
2022/06/14 09:04:34;;;;;;;5.03;0.40;;;18.20;89.40;;;;;;5037049;28;20032;-85
2022/06/14 09:07:37;;;;;;;3.67;0.35;;;18.40;89.60;;;;;;5036786;28;20033;-84
2022/06/14 09:10:42;;;;;;;2.67;0.30;;;18.60;88.20;;;;;;5035793;28;20090;-85
2022/06/14 09:13:28;;;;;;;3.60;0.50;;;18.70;87.20;;;;;;5026074;28;20056;-84
2022/06/14 09:16:33;;;;;;;2.78;0.30;;;18.80;86.50;;;;;;5036675;28;20548;-85
2022/06/14 09:19:38;;;;;;;4.18;0.50;;;18.90;85.00;;;;;;5036672;28;20120;-84
2022/06/14 09:22:16;;;;;;;4.60;0.38;;;19.00;85.00;;;;;;5017797;28;20037;-83
2022/06/14 09:25:02;;;;;;;2.45;0.45;;;19.20;84.30;;;;;;5035869;28;20029;-84
2022/06/14 09:28:11;;;;;;;3.78;0.68;;;19.30;83.20;;;;;;5035719;28;20033;-84
2022/06/14 09:30:47;;;;;;;6.25;1.33;;;19.20;82.70;;;;;;5035592;28;20427;-84
2022/06/14 09:33:53;;;;;;;2.83;0.28;;;19.20;83.50;;;;;;5036374;28;20033;-84
2022/06/14 09:36:33;;;;;;;3.47;0.30;;;19.30;82.00;;;;;;5018624;28;20155;-84
2022/06/14 09:39:21;;;;;;;2.28;0.30;;;19.10;81.50;;;;;;5036004;28;20482;-84
2022/06/14 09:42:22;;;;;;;4.57;0.70;;;19.20;81.90;;;;;;5035084;28;20028;-84
2022/06/14 09:45:18;;;;;;;1.75;0.30;;;19.40;81.00;;;;;;5036347;28;20470;-84
2022/06/14 09:47:50;;;;;;;3.95;0.40;;;19.40;81.20;;;;;;5036112;28;20017;-85
2022/06/14 09:50:40;;;;;;;6.13;1.17;;;19.60;81.60;;;;;;5034875;28;20382;-84
2022/06/14 09:53:33;;;;;;;5.35;0.40;;;19.90;81.80;;;;;;5036079;28;20022;-84
2022/06/14 09:56:10;;;;;;;4.65;0.60;;;20.30;80.60;;;;;;5034978;28;20069;-85
2022/06/14 09:58:59;;;;;;;3.92;0.50;;;20.40;78.60;;;;;;5034791;28;20057;-85
2022/06/14 10:01:47;;;;;;;3.20;0.40;;;20.40;77.70;;;;;;5034733;28;20056;-84
2022/06/14 10:04:37;;;;;;;3.65;0.40;;;20.60;78.00;;;;;;5035562;28;20025;-83
2022/06/14 10:07:08;;;;;;;1.50;0.28;;;20.70;77.60;;;;;;5034573;28;20125;-83
2022/06/14 10:09:56;;;;;;;3.20;0.50;;;20.80;77.70;;;;;;5018045;28;20075;-83
2022/06/14 10:12:39;;;;;;;4.00;0.30;;;20.70;77.30;;;;;;5035318;28;20033;-84
2022/06/14 10:15:19;;;;;;;3.55;0.40;;;20.40;77.00;;;;;;5034256;28;20045;-83
2022/06/14 10:18:17;;;;;;;3.28;0.60;;;20.20;77.40;;;;;;5035482;28;20017;-84
2022/06/14 10:20:55;;;;;;;2.10;0.40;;;20.20;77.10;;;;;;5034168;28;20509;-83
2022/06/14 10:23:43;;;;;;;4.55;0.50;;;20.20;76.90;;;;;;5034258;28;20437;-84
2022/06/14 10:29:53;;;;;;;2.60;0.38;;;20.10;76.00;;;;;;5021308;28;20084;-84
2022/06/14 10:33:00;;;;;;;3.88;0.40;;;20.30;75.30;;;;;;5034392;28;20124;-84
2022/06/14 10:35:52;;;;;;;3.95;0.40;;;20.40;74.70;;;;;;4974208;28;20436;-83
2022/06/14 10:38:40;;;;;;;4.78;0.50;;;20.60;74.00;;;;;;5034107;28;20036;-84
2022/06/14 10:41:41;;;;;;;3.42;0.40;;;20.70;74.40;;;;;;5017980;28;20040;-84
2022/06/14 10:44:31;;;;;;;1.60;0.30;;;20.90;74.40;;;;;;5017461;28;20025;-85
2022/06/14 10:47:28;;;;;;;3.25;0.40;;;21.20;73.10;;;;;;5035049;28;20029;-85
2022/06/14 10:50:12;;;;;;;3.58;0.40;;;21.30;72.00;;;;;;5016649;28;20092;-84
2022/06/14 10:52:46;;;;;;;5.38;0.65;;;21.10;71.80;;;;;;5034263;28;20031;-85
2022/06/14 10:55:28;;;;;;;3.08;0.30;;;21.10;71.80;;;;;;5034691;28;20060;-85
2022/06/14 10:58:15;;;;;;;4.97;0.50;;;21.30;72.30;;;;;;5034855;28;20025;-85
2022/06/14 11:00:47;;;;;;;3.70;0.30;;;21.40;71.60;;;;;;5034783;28;20025;-84
2022/06/14 11:03:41;;;;;;;3.92;0.35;;;21.20;71.30;;;;;;5033493;28;20025;-85
2022/06/14 11:06:14;;;;;;;3.60;0.38;;;21.10;70.70;;;;;;5033273;28;20039;-84
2022/06/14 11:09:08;;;;;;;2.60;0.40;;;20.80;70.20;;;;;;5034548;28;20063;-84
2022/06/14 11:11:40;;;;;;;3.92;0.45;;;20.70;71.90;;;;;;5016956;28;20025;-85
2022/06/14 11:14:22;;;;;;;4.63;0.35;;;20.90;72.40;;;;;;5034686;28;20029;-84
2022/06/14 11:17:04;;;;;;;;;;;21.00;71.20;;;;;;5017419;28;20091;-84
2022/06/14 11:19:43;;;;;;;2.45;0.40;;;21.00;70.30;;;;;;5034382;28;19905;-85
2022/06/14 11:22:22;;;;;;;3.72;0.40;;;20.90;69.20;;;;;;5017020;28;20028;-86
2022/06/14 11:24:55;;;;;;;3.55;0.40;;;20.90;69.10;;;;;;5016746;28;20029;-84
2022/06/14 11:27:28;;;;;;;2.75;0.88;;;21.00;69.10;;;;;;5016350;28;20520;-84
2022/06/14 11:30:02;;;;;;;3.15;0.40;;;21.10;69.70;;;;;;5034429;28;20037;-85
2022/06/14 11:33:06;;;;;;;2.72;0.40;;;21.10;70.80;;;;;;5032972;28;20032;-84
2022/06/14 11:35:31;;;;;;;2.42;0.30;;;21.30;70.30;;;;;;5003301;28;20406;-84
2022/06/14 11:38:16;;;;;;;2.28;0.32;;;21.20;69.90;;;;;;5033896;28;20033;-84
2022/06/14 11:40:47;;;;;;;4.22;0.43;;;21.20;69.80;;;;;;5034405;28;20052;-85
2022/06/14 11:43:24;;;;;;;4.50;0.43;;;21.10;69.10;;;;;;5034027;28;20385;-84
2022/06/14 11:46:02;;;;;;;3.42;0.30;;;21.00;69.50;;;;;;5033975;28;20022;-84
2022/06/14 11:48:57;;;;;;;2.17;0.35;;;20.90;70.00;;;;;;5033795;28;20021;-85
2022/06/14 11:51:45;;;;;;;2.60;0.28;;;21.10;69.80;;;;;;5033940;28;20021;-84
2022/06/14 11:54:22;;;;;;;2.40;0.40;;;21.20;69.20;;;;;;5032506;28;20022;-85
2022/06/14 11:57:15;;;;;;;2.95;0.32;;;21.30;68.90;;;;;;5016316;28;20472;-85
2022/06/14 11:59:47;;;;;;;;;;;21.30;68.80;;;;;;5016618;28;20120;-84
2022/06/14 12:02:31;;;;;;;;;;;21.30;68.90;;;;;;5034115;28;20053;-85
2022/06/14 12:05:24;;;;;;;3.63;0.30;;;21.30;69.30;;;;;;5015793;28;19960;-85
2022/06/14 12:07:55;;;;;;;;;;;21.30;69.30;;;;;;5008614;28;20087;-84
2022/06/14 12:10:40;;;;;;;2.08;0.40;;;21.30;69.70;;;;;;5033496;28;20353;-84
2022/06/14 12:13:17;;;;;;;3.90;0.40;;;21.40;69.00;;;;;;5032511;28;20021;-85
2022/06/14 12:15:45;;;;;;;4.13;0.40;;;21.40;68.30;;;;;;5015954;28;20037;-85
2022/06/14 12:18:16;;;;;;;3.45;0.40;;;21.40;68.80;;;;;;5033377;28;20466;-84
2022/06/14 12:21:15;;;;;;;1.63;0.30;;;21.60;68.80;;;;;;5015996;28;20428;-84
2022/06/14 12:23:48;;;;;;;3.50;0.30;;;21.70;68.40;;;;;;4946602;28;20110;-84
2022/06/14 12:26:37;;;;;;;3.95;0.90;;;21.80;67.90;;;;;;5015970;28;20038;-84
2022/06/14 12:29:18;;;;;;;2.20;0.40;;;21.80;67.70;;;;;;5033375;28;20018;-85
2022/06/14 12:31:55;;;;;;;3.80;0.40;;;22.10;67.80;;;;;;5033410;28;20033;-84
2022/06/14 12:34:29;;;;;;;2.88;0.28;;;22.20;66.90;;;;;;5032809;28;20034;-85
2022/06/14 12:37:12;;;;;;;3.30;0.45;;;22.20;65.50;;;;;;5033471;28;20048;-84
2022/06/14 12:39:45;;;;;;;3.67;0.60;;;22.00;65.50;;;;;;5015639;28;20030;-85
2022/06/14 12:42:35;;;;;;;6.10;0.55;;;21.90;64.90;;;;;;5015881;28;20060;-85
2022/06/14 12:45:28;;;;;;;2.63;0.40;;;21.90;65.40;;;;;;5033073;28;20018;-85
2022/06/14 12:48:12;;;;;;;3.40;0.38;;;21.90;65.30;;;;;;5015525;28;20120;-85
2022/06/14 12:50:45;;;;;;;3.60;0.50;;;22.00;65.00;;;;;;5015748;28;20108;-86
2022/06/14 12:53:50;;;;;;;3.13;0.60;;;22.00;65.10;;;;;;5033241;28;20051;-86
2022/06/14 12:56:47;;;;;;;3.25;0.40;;;22.20;65.00;;;;;;5033365;28;20037;-86
2022/06/14 12:59:38;;;;;;;2.15;0.50;;;22.40;65.40;;;;;;4988389;28;20039;-85
2022/06/14 13:02:41;;;;;;;5.20;0.50;;;22.60;65.70;;;;;;5033470;28;20064;-85
2022/06/14 13:05:12;;;;;;;3.22;0.50;;;22.90;66.50;;;;;;5033303;28;20033;-86
2022/06/14 13:07:47;;;;;;;3.00;0.50;;;23.10;65.50;;;;;;5033255;28;20025;-86
2022/06/14 13:10:59;;;;;;;3.70;0.30;;;23.20;64.50;;;;;;5032142;28;20026;-86
2022/06/14 13:13:33;;;;;;;2.65;0.35;;;23.50;64.80;;;;;;5034471;28;20025;-87
2022/06/14 13:16:38;;;;;;;3.08;0.40;;;23.50;64.30;;;;;;5036998;28;20483;-83
2022/06/14 13:19:57;;;;;;;3.40;0.73;;;23.50;63.10;;;;;;5026444;28;20025;-84
2022/06/14 13:22:49;;;;;;;1.85;0.30;;;23.20;62.20;;;;;;4975777;28;20058;-85
2022/06/14 13:25:41;;;;;;;2.95;0.30;;;23.00;63.20;;;;;;4975989;28;20102;-84
2022/06/14 13:28:37;;;;;;;2.50;0.32;;;23.00;62.90;;;;;;5024647;28;20075;-85
2022/06/14 13:31:30;;;;;;;2.15;0.22;;;23.00;61.30;;;;;;5056358;28;20025;-85
2022/06/14 13:34:33;;;;;;;1.77;0.30;;;23.00;60.90;;;;;;5056345;28;20032;-85
2022/06/14 13:37:37;;;;;;;1.48;0.30;;;22.90;60.40;;;;;;5055426;28;20043;-85
2022/06/14 13:40:10;;;;;;;3.65;0.40;;;23.00;60.70;;;;;;5056467;28;20025;-85
2022/06/14 13:42:56;;;;;;;2.58;0.30;;;23.30;60.30;;;;;;5056397;28;20465;-85
2022/06/14 13:45:38;;;;;;;4.63;0.43;;;23.50;59.80;;;;;;5038453;28;20021;-85
2022/06/14 13:48:21;;;;;;;5.15;0.55;;;23.80;59.40;;;;;;5056188;28;20075;-85
2022/06/14 13:51:28;;;;;;;2.05;0.30;;;23.90;59.90;;;;;;5038400;28;20359;-85
2022/06/14 13:54:25;;;;;;;5.13;0.40;;;24.00;59.00;;;;;;5054762;28;20429;-85
2022/06/14 13:57:23;;;;;;;3.45;0.40;;;24.10;58.10;;;;;;5056402;28;20064;-85
2022/06/14 13:59:51;;;;;;;2.50;0.40;;;24.30;58.10;;;;;;5055895;28;20045;-84
2022/06/14 14:02:21;;;;;;;4.20;0.45;;;24.20;57.90;;;;;;5055736;28;20036;-85
2022/06/14 14:04:56;;;;;;;2.15;0.60;;;24.20;57.40;;;;;;5055971;28;20029;-85
2022/06/14 14:07:32;;;;;;;1.90;0.30;;;24.40;57.60;;;;;;5038174;28;20144;-85
2022/06/14 14:10:06;;;;;;;2.67;0.30;;;24.50;56.90;;;;;;5038060;28;20158;-85
2022/06/14 14:12:46;;;;;;;1.75;0.30;;;24.60;56.70;;;;;;5037787;28;20025;-85
2022/06/14 14:15:15;;;;;;;2.45;0.40;;;24.70;56.60;;;;;;5037666;28;20033;-86